Time;durP1;ratioP1;P1;durP2;ratioP2;P2;SDS_P1;SDS_P2;PMS_P1;PMS_P2;Temp;Humidity;BMP_temperature;BMP_pressure;BME280_temperature;BME280_humidity;BME280_pressure;Samples;Min_cycle;Max_cycle;Signal;HPM_P1;HPM_P2
2022/01/12 00:02:02;;;;;;;65.45;38.33;;;1.50;84.40;;;;;;5013992;28;20395;-86
2022/01/12 00:04:30;;;;;;;63.70;37.15;;;1.50;84.40;;;;;;5015722;28;20041;-87
2022/01/12 00:06:57;;;;;;;58.53;36.42;;;1.50;84.40;;;;;;5029053;28;20136;-86
2022/01/12 00:09:24;;;;;;;63.42;36.58;;;1.50;84.40;;;;;;5013627;28;20395;-86
2022/01/12 00:11:51;;;;;;;60.55;36.60;;;1.50;84.50;;;;;;5018138;28;20042;-86
2022/01/12 00:14:18;;;;;;;68.65;39.30;;;1.50;84.50;;;;;;5018124;28;20045;-86
2022/01/12 00:16:48;;;;;;;58.47;34.97;;;1.50;84.50;;;;;;5016579;28;20387;-86
2022/01/12 00:19:16;;;;;;;59.58;36.97;;;1.50;84.50;;;;;;5014201;28;20049;-86
2022/01/12 00:21:42;;;;;;;62.10;37.05;;;1.50;84.50;;;;;;5018112;28;20060;-86
2022/01/12 00:24:10;;;;;;;59.92;36.88;;;1.50;84.60;;;;;;5017704;28;20045;-86
2022/01/12 00:33:07;;;;;;;63.80;37.25;;;1.50;84.50;;;;;;5017261;28;20045;-85
2022/01/12 00:34:58;;;;;;;60.30;35.85;;;1.60;84.60;;;;;;5030910;28;20064;-86
2022/01/12 00:37:25;;;;;;;59.22;35.88;;;1.60;84.60;;;;;;5031300;28;20068;-86
2022/01/12 00:39:58;;;;;;;63.50;37.53;;;1.60;84.60;;;;;;5032755;28;20047;-86
2022/01/12 00:42:27;;;;;;;64.55;37.55;;;1.60;84.60;;;;;;5029911;28;20049;-86
2022/01/12 00:44:55;;;;;;;54.65;33.95;;;1.60;84.60;;;;;;5030004;28;20041;-86
2022/01/12 00:47:22;;;;;;;62.20;37.38;;;1.60;84.70;;;;;;5033901;28;20402;-86
2022/01/12 00:49:49;;;;;;;56.78;35.88;;;1.60;84.70;;;;;;5033873;28;20092;-86
2022/01/12 00:52:16;;;;;;;62.20;36.05;;;1.60;84.70;;;;;;5033945;28;20041;-86
2022/01/12 00:54:46;;;;;;;59.05;36.10;;;1.70;84.70;;;;;;5032621;28;20053;-86
2022/01/12 00:57:13;;;;;;;61.55;37.05;;;1.60;84.70;;;;;;5033680;28;20562;-86
2022/01/12 00:59:40;;;;;;;60.55;36.25;;;1.70;84.70;;;;;;5033662;28;20050;-86
2022/01/12 01:02:07;;;;;;;58.42;35.58;;;1.70;84.70;;;;;;5033744;28;20046;-87
2022/01/12 01:04:34;;;;;;;64.63;36.45;;;1.70;84.70;;;;;;5033637;28;20056;-86
2022/01/12 01:07:02;;;;;;;58.50;35.35;;;1.70;84.70;;;;;;5032948;28;20057;-87
2022/01/12 01:09:29;;;;;;;60.30;35.78;;;1.70;84.70;;;;;;5032781;28;20056;-86
2022/01/12 01:11:56;;;;;;;57.95;35.80;;;1.70;84.70;;;;;;5033436;28;20045;-87
2022/01/12 01:14:37;;;;;;;58.63;36.83;;;1.70;84.70;;;;;;5033266;28;20045;-87
2022/01/12 01:25:31;;;;;;;57.97;36.28;;;1.70;84.70;;;;;;5050812;28;20524;-86
2022/01/12 01:28:00;;;;;;;59.83;36.70;;;1.70;84.70;;;;;;5047159;28;20512;-86
2022/01/12 01:30:27;;;;;;;57.67;34.63;;;1.70;84.70;;;;;;5035002;28;20045;-87
2022/01/12 01:32:57;;;;;;;62.15;36.28;;;1.70;84.70;;;;;;5046511;28;20051;-86
2022/01/12 01:35:29;;;;;;;55.00;35.95;;;1.70;84.70;;;;;;5046401;28;20049;-87
2022/01/12 01:37:58;;;;;;;58.47;36.70;;;1.70;84.70;;;;;;5046088;28;20045;-87
2022/01/12 01:40:26;;;;;;;54.45;35.08;;;1.70;84.70;;;;;;5034104;28;20049;-86
2022/01/12 01:43:11;;;;;;;60.80;37.45;;;1.70;84.70;;;;;;5046300;28;20198;-87
2022/01/12 01:53:56;;;;;;;52.08;33.42;;;1.70;84.70;;;;;;5045810;28;20041;-87
2022/01/12 01:56:24;;;;;;;58.80;35.60;;;1.70;84.80;;;;;;5041971;28;20434;-87
2022/01/12 01:58:51;;;;;;;57.92;34.88;;;1.70;84.80;;;;;;5033054;28;20045;-87
2022/01/12 02:01:19;;;;;;;54.00;33.83;;;1.70;84.80;;;;;;5033066;28;20554;-87
2022/01/12 02:03:46;;;;;;;55.45;34.95;;;1.70;84.80;;;;;;5032018;28;20406;-86
2022/01/12 02:06:15;;;;;;;53.78;34.67;;;1.70;84.80;;;;;;5032853;28;20067;-87
2022/01/12 02:08:43;;;;;;;57.72;35.33;;;1.70;84.80;;;;;;5032307;28;20053;-87
2022/01/12 02:11:10;;;;;;;51.92;34.67;;;1.70;84.80;;;;;;5032907;28;20050;-87
2022/01/12 02:13:37;;;;;;;56.05;34.90;;;1.80;84.80;;;;;;5032783;28;20421;-86
2022/01/12 02:16:04;;;;;;;57.33;34.92;;;1.70;84.80;;;;;;5032698;28;20053;-87
2022/01/12 02:18:41;;;;;;;55.60;35.33;;;1.70;84.80;;;;;;5031839;28;20052;-87
2022/01/12 02:35:36;;;;;;;54.38;33.58;;;1.80;84.90;;;;;;5036257;28;20135;-87
2022/01/12 02:40:42;;;;;;;48.13;32.55;;;1.80;84.80;;;;;;5036502;28;20037;-86
2022/01/12 02:43:17;;;;;;;48.38;32.63;;;1.80;84.80;;;;;;5036290;28;20063;-87
2022/01/12 02:53:49;;;;;;;47.55;31.70;;;1.70;84.80;;;;;;5035948;28;20505;-88
2022/01/12 02:56:21;;;;;;;45.92;30.80;;;1.70;84.80;;;;;;5035934;28;20059;-87
2022/01/12 02:58:50;;;;;;;49.15;31.40;;;1.80;84.90;;;;;;5067902;28;20505;-87
2022/01/12 03:03:52;;;;;;;47.67;31.60;;;1.70;84.80;;;;;;5031107;28;20060;-87
2022/01/12 03:06:25;;;;;;;49.60;31.42;;;1.80;84.90;;;;;;5037174;28;20140;-87
2022/01/12 03:08:52;;;;;;;46.30;29.55;;;1.70;84.90;;;;;;5035766;28;20441;-87
2022/01/12 03:11:21;;;;;;;45.92;29.05;;;1.80;84.90;;;;;;5035717;28;20514;-88
2022/01/12 03:13:50;;;;;;;49.08;31.15;;;1.80;84.90;;;;;;5035781;28;20452;-87
2022/01/12 03:16:20;;;;;;;46.72;29.42;;;1.80;84.90;;;;;;5035710;28;20045;-86
2022/01/12 03:18:50;;;;;;;52.95;31.67;;;1.80;84.90;;;;;;5030795;28;20067;-87
2022/01/12 03:21:20;;;;;;;50.33;29.75;;;1.80;84.90;;;;;;5035429;28;20056;-87
2022/01/12 03:23:49;;;;;;;51.63;30.73;;;1.80;84.90;;;;;;5034111;28;20041;-87
2022/01/12 03:26:16;;;;;;;46.22;30.38;;;1.80;84.90;;;;;;5067562;28;20049;-87
2022/01/12 03:28:44;;;;;;;51.92;31.58;;;1.80;84.90;;;;;;5035527;28;20195;-87
2022/01/12 03:31:20;;;;;;;48.97;30.58;;;1.80;84.90;;;;;;5035566;28;20072;-87
2022/01/12 03:33:56;;;;;;;47.63;29.23;;;1.80;84.90;;;;;;5030266;28;20045;-87
2022/01/12 03:36:54;;;;;;;48.67;29.58;;;1.80;85.00;;;;;;5034213;28;20055;-88
2022/01/12 03:39:21;;;;;;;44.20;28.85;;;1.80;85.00;;;;;;5034957;28;20498;-87
2022/01/12 03:41:48;;;;;;;51.00;30.00;;;1.80;85.00;;;;;;5035155;28;20048;-87
2022/01/12 03:44:17;;;;;;;48.72;30.40;;;1.80;85.00;;;;;;5035049;28;20041;-88
2022/01/12 03:46:52;;;;;;;47.25;28.63;;;1.80;85.00;;;;;;5036937;28;20064;-88
2022/01/12 03:49:20;;;;;;;48.65;29.02;;;1.80;85.00;;;;;;5034899;28;20052;-89
2022/01/12 03:51:48;;;;;;;50.65;30.60;;;1.90;85.00;;;;;;5030043;28;20132;-87
2022/01/12 03:54:16;;;;;;;46.70;28.52;;;1.80;85.00;;;;;;5035062;28;20132;-88
2022/01/12 03:56:43;;;;;;;51.60;29.38;;;1.80;85.00;;;;;;5034789;28;20050;-88
2022/01/12 03:59:10;;;;;;;49.83;29.08;;;1.80;85.00;;;;;;5034895;28;20052;-87
2022/01/12 04:01:38;;;;;;;53.10;28.23;;;1.90;85.10;;;;;;5034858;28;20045;-87
2022/01/12 04:04:17;;;;;;;49.15;29.30;;;1.90;85.00;;;;;;5034578;28;20049;-87
2022/01/12 04:09:46;;;;;;;52.63;29.88;;;1.90;85.10;;;;;;5033770;28;20053;-89
2022/01/12 04:12:15;;;;;;;49.88;29.73;;;1.90;85.10;;;;;;5034709;28;20049;-88
2022/01/12 04:14:43;;;;;;;47.17;27.77;;;1.90;85.10;;;;;;5034690;28;20045;-88
2022/01/12 04:17:10;;;;;;;52.20;29.35;;;1.90;85.10;;;;;;5034425;28;20056;-88
2022/01/12 04:19:37;;;;;;;49.42;29.48;;;1.90;85.10;;;;;;5034326;28;20048;-87
2022/01/12 04:23:16;;;;;;;46.97;28.15;;;1.90;85.10;;;;;;5034359;28;20429;-87
2022/01/12 04:24:54;;;;;;;49.05;29.27;;;1.90;85.10;;;;;;5030150;28;20041;-88
2022/01/12 04:27:22;;;;;;;55.38;30.00;;;1.90;85.10;;;;;;5034470;28;20049;-88
2022/01/12 04:29:49;;;;;;;49.92;28.80;;;1.90;85.10;;;;;;5034232;28;20056;-88
2022/01/12 04:32:16;;;;;;;52.47;30.48;;;1.90;85.20;;;;;;5033847;28;20418;-88
2022/01/12 04:34:43;;;;;;;49.65;30.30;;;1.90;85.10;;;;;;5034487;28;20068;-88
2022/01/12 04:37:10;;;;;;;54.90;29.38;;;1.90;85.20;;;;;;5034130;28;20060;-88
2022/01/12 04:39:37;;;;;;;55.22;30.27;;;1.90;85.20;;;;;;5032167;28;20414;-86
2022/01/12 04:42:04;;;;;;;49.08;29.42;;;1.90;85.20;;;;;;5034072;28;20068;-88
2022/01/12 04:44:31;;;;;;;55.92;30.45;;;1.90;85.20;;;;;;5034055;28;20414;-88
2022/01/12 04:47:08;;;;;;;50.10;29.85;;;1.90;85.20;;;;;;5033210;28;20520;-88
2022/01/12 04:52:08;;;;;;;51.00;30.60;;;1.90;85.20;;;;;;5033605;28;20080;-89
2022/01/12 04:54:35;;;;;;;52.60;30.70;;;1.90;85.20;;;;;;5034713;28;20046;-89
2022/01/12 04:57:03;;;;;;;55.75;30.38;;;1.90;85.20;;;;;;5033671;28;20049;-88
2022/01/12 04:59:34;;;;;;;47.08;28.35;;;1.90;85.20;;;;;;5035395;28;20041;-89
2022/01/12 05:06:18;;;;;;;51.40;30.67;;;1.90;85.30;;;;;;5033480;28;20144;-89
2022/01/12 05:07:44;;;;;;;49.38;28.02;;;2.00;85.30;;;;;;5019733;28;20049;-88
2022/01/12 05:12:56;;;;;;;53.83;29.77;;;1.90;85.30;;;;;;5029291;28;20461;-90
2022/01/12 05:15:35;;;;;;;53.92;30.02;;;2.00;85.30;;;;;;5032208;28;20084;-88
2022/01/12 05:18:02;;;;;;;51.13;29.52;;;2.00;85.30;;;;;;5033602;28;20413;-89
2022/01/12 05:20:29;;;;;;;51.35;29.15;;;2.00;85.30;;;;;;5033340;28;20056;-90
2022/01/12 05:22:56;;;;;;;51.95;30.38;;;2.00;85.30;;;;;;5033619;28;20061;-88
2022/01/12 05:25:23;;;;;;;54.38;30.33;;;2.00;85.30;;;;;;5033453;28;20523;-88
2022/01/12 05:27:52;;;;;;;52.92;30.77;;;2.00;85.30;;;;;;5032734;28;20445;-89
2022/01/12 05:30:19;;;;;;;51.88;29.42;;;2.00;85.40;;;;;;5034522;28;20049;-88
2022/01/12 05:32:46;;;;;;;48.60;28.50;;;2.00;85.40;;;;;;5034941;28;20499;-88
2022/01/12 05:35:16;;;;;;;51.05;29.33;;;2.00;85.40;;;;;;5034557;28;20053;-88
2022/01/12 05:37:44;;;;;;;51.72;29.88;;;2.00;85.40;;;;;;5065014;28;20069;-89
2022/01/12 05:40:13;;;;;;;50.75;30.30;;;2.00;85.40;;;;;;5033453;28;20075;-90
2022/01/12 05:42:41;;;;;;;51.97;30.55;;;2.00;85.40;;;;;;5032531;28;20528;-89
2022/01/12 05:45:08;;;;;;;57.03;31.75;;;2.00;85.40;;;;;;5064772;28;20041;-90
2022/01/12 05:49:33;;;;;;;58.75;32.53;;;2.00;85.40;;;;;;5031800;28;20052;-90
2022/01/12 05:50:23;;;;;;;60.30;32.25;;;2.00;85.40;;;;;;5032955;28;20046;-90
2022/01/12 05:52:51;;;;;;;50.08;29.10;;;2.00;85.40;;;;;;5033127;28;20417;-89
2022/01/12 05:55:18;;;;;;;50.78;28.58;;;2.10;85.40;;;;;;5033200;28;20052;-88
2022/01/12 05:57:47;;;;;;;56.20;31.92;;;2.10;85.40;;;;;;5032140;28;20525;-89
2022/01/12 06:00:17;;;;;;;55.28;30.25;;;2.10;85.50;;;;;;5068588;28;20418;-89
2022/01/12 06:02:44;;;;;;;55.08;30.13;;;2.10;85.50;;;;;;5036867;28;20056;-88
2022/01/12 06:05:14;;;;;;;54.00;30.75;;;2.10;85.50;;;;;;5037152;28;20050;-88
2022/01/12 06:07:42;;;;;;;57.05;29.92;;;2.10;85.50;;;;;;5037055;28;20053;-89
2022/01/12 06:10:09;;;;;;;62.00;33.60;;;2.10;85.50;;;;;;5037090;28;20056;-88
2022/01/12 06:12:38;;;;;;;60.78;32.58;;;2.10;85.50;;;;;;5036129;28;20045;-89
2022/01/12 06:15:06;;;;;;;64.47;34.67;;;2.10;85.50;;;;;;5036458;28;20049;-88
2022/01/12 06:17:34;;;;;;;60.28;32.50;;;2.20;85.50;;;;;;5036758;28;20056;-88
2022/01/12 06:20:05;;;;;;;63.28;32.50;;;2.20;85.50;;;;;;5036807;28;20423;-88
2022/01/12 06:22:32;;;;;;;58.13;30.95;;;2.20;85.60;;;;;;5036760;28;20402;-89
2022/01/12 06:25:00;;;;;;;60.15;32.47;;;2.20;85.60;;;;;;5036083;28;20045;-88
2022/01/12 06:27:31;;;;;;;54.33;31.85;;;2.20;85.60;;;;;;5036328;28;20060;-89
2022/01/12 06:31:10;;;;;;;53.80;30.40;;;2.20;85.60;;;;;;5036243;28;20057;-89
2022/01/12 06:32:52;;;;;;;57.17;31.60;;;2.20;85.60;;;;;;5036447;28;20063;-89
2022/01/12 06:35:19;;;;;;;64.40;32.35;;;2.20;85.60;;;;;;5036625;28;20054;-89
2022/01/12 06:37:47;;;;;;;64.10;33.80;;;2.20;85.60;;;;;;5036304;28;20049;-88
2022/01/12 06:40:16;;;;;;;65.95;32.70;;;2.20;85.60;;;;;;5035319;28;20037;-89
2022/01/12 06:42:44;;;;;;;61.20;32.95;;;2.20;85.60;;;;;;5034289;28;20510;-89
2022/01/12 06:45:11;;;;;;;62.20;32.38;;;2.30;85.70;;;;;;5036470;28;20402;-88
2022/01/12 06:47:38;;;;;;;64.50;33.30;;;2.30;85.70;;;;;;5036375;28;20045;-89
2022/01/12 06:50:07;;;;;;;66.93;33.88;;;2.30;85.70;;;;;;5036278;28;20051;-89
2022/01/12 06:52:34;;;;;;;60.05;33.00;;;2.30;85.70;;;;;;5036244;28;20056;-88
2022/01/12 06:55:01;;;;;;;68.43;33.33;;;2.30;85.70;;;;;;5035620;28;20081;-88
2022/01/12 06:57:30;;;;;;;61.85;33.45;;;2.30;85.70;;;;;;5035296;28;20056;-89
2022/01/12 06:59:58;;;;;;;67.65;33.30;;;2.30;85.70;;;;;;5036009;28;20041;-89
2022/01/12 07:02:25;;;;;;;61.03;32.97;;;2.30;85.80;;;;;;5036006;28;20057;-89
2022/01/12 07:04:52;;;;;;;63.58;32.53;;;2.40;85.80;;;;;;5068024;28;20053;-89
2022/01/12 07:07:19;;;;;;;69.93;33.92;;;2.40;85.80;;;;;;5035891;28;20063;-89
2022/01/12 07:09:46;;;;;;;63.03;31.27;;;2.40;85.80;;;;;;5033583;28;20048;-88
2022/01/12 07:12:16;;;;;;;55.60;30.38;;;2.40;85.80;;;;;;5035411;28;20049;-88
2022/01/12 07:14:43;;;;;;;61.92;30.98;;;2.40;85.80;;;;;;5035955;28;20056;-91
2022/01/12 07:17:12;;;;;;;64.80;29.55;;;2.40;85.80;;;;;;5035597;28;20561;-88
2022/01/12 07:19:40;;;;;;;62.83;30.02;;;2.40;85.90;;;;;;5067915;28;20045;-89
2022/01/12 07:22:07;;;;;;;65.93;30.70;;;2.40;85.90;;;;;;5034601;28;20053;-88
2022/01/12 07:24:35;;;;;;;61.65;31.08;;;2.40;85.90;;;;;;5034816;28;20045;-88
2022/01/12 07:27:02;;;;;;;70.10;31.75;;;2.40;85.90;;;;;;5035101;28;20513;-88
2022/01/12 07:29:29;;;;;;;59.08;29.42;;;2.40;85.90;;;;;;5035735;28;20050;-89
2022/01/12 07:31:56;;;;;;;61.17;29.17;;;2.40;85.90;;;;;;5035387;28;20045;-89
2022/01/12 07:34:24;;;;;;;54.17;28.05;;;2.40;85.90;;;;;;5035597;28;20420;-88
2022/01/12 07:36:51;;;;;;;51.35;26.00;;;2.50;85.90;;;;;;5034738;28;20059;-88
2022/01/12 07:39:18;;;;;;;58.65;28.20;;;2.50;85.90;;;;;;5035724;28;20055;-88
2022/01/12 07:41:45;;;;;;;54.88;26.63;;;2.50;85.90;;;;;;5067178;28;20071;-89
2022/01/12 07:44:12;;;;;;;55.40;27.55;;;2.50;85.90;;;;;;5035314;28;20045;-88
2022/01/12 07:46:39;;;;;;;55.40;26.00;;;2.50;85.90;;;;;;5035364;28;20072;-89
2022/01/12 07:49:06;;;;;;;55.33;25.73;;;2.50;85.90;;;;;;5035465;28;20425;-88
2022/01/12 07:51:33;;;;;;;52.17;26.63;;;2.50;85.90;;;;;;5033263;28;20140;-88
2022/01/12 07:54:01;;;;;;;50.95;26.00;;;2.50;86.00;;;;;;5034922;28;20395;-89
2022/01/12 07:56:28;;;;;;;48.83;26.52;;;2.50;86.00;;;;;;5033356;28;20053;-88
2022/01/12 07:58:55;;;;;;;54.58;25.90;;;2.50;86.00;;;;;;5034938;28;20528;-88
2022/01/12 08:01:23;;;;;;;48.95;24.75;;;2.50;86.00;;;;;;5034013;28;20045;-89
2022/01/12 08:03:50;;;;;;;47.08;23.90;;;2.50;86.00;;;;;;5034447;28;20045;-89
2022/01/12 08:06:17;;;;;;;49.38;24.48;;;2.50;86.00;;;;;;5068459;28;20471;-89
2022/01/12 08:08:44;;;;;;;48.13;24.73;;;2.50;86.00;;;;;;5033312;28;20067;-88
2022/01/12 08:11:12;;;;;;;48.53;24.50;;;2.50;86.00;;;;;;5035832;28;20124;-88
2022/01/12 08:13:39;;;;;;;45.70;23.05;;;2.50;86.00;;;;;;5066619;28;20060;-88
2022/01/12 08:16:06;;;;;;;44.67;23.38;;;2.50;86.00;;;;;;5033591;28;20113;-89
2022/01/12 08:18:34;;;;;;;48.90;24.02;;;2.50;86.00;;;;;;5030685;28;20045;-87
2022/01/12 08:21:03;;;;;;;49.28;23.73;;;2.60;86.00;;;;;;5031581;28;20137;-89
2022/01/12 08:23:30;;;;;;;47.83;23.80;;;2.50;86.00;;;;;;5032046;28;20422;-87
2022/01/12 08:25:57;;;;;;;48.45;24.33;;;2.60;86.00;;;;;;5032121;28;20135;-88
2022/01/12 08:28:24;;;;;;;47.97;23.45;;;2.60;86.00;;;;;;5033760;28;20520;-88
2022/01/12 08:30:51;;;;;;;45.95;24.48;;;2.60;86.10;;;;;;5033169;28;20530;-88
2022/01/12 08:33:18;;;;;;;51.90;24.58;;;2.60;86.10;;;;;;5035281;28;20426;-89
2022/01/12 08:35:46;;;;;;;46.90;24.33;;;2.70;86.10;;;;;;5033297;28;20056;-89
2022/01/12 08:38:13;;;;;;;47.85;22.65;;;2.60;86.10;;;;;;5033849;28;20053;-88
2022/01/12 08:40:41;;;;;;;49.03;24.15;;;2.70;86.10;;;;;;5033728;28;20052;-88
2022/01/12 08:43:09;;;;;;;45.95;22.98;;;2.70;86.10;;;;;;5033640;28;20157;-89
2022/01/12 08:45:36;;;;;;;42.45;21.90;;;2.70;86.10;;;;;;5033006;28;20045;-88
2022/01/12 08:48:03;;;;;;;43.92;21.67;;;2.70;86.10;;;;;;5033719;28;20045;-88
2022/01/12 08:50:30;;;;;;;47.58;23.35;;;2.70;86.10;;;;;;5065225;28;20042;-89
2022/01/12 08:52:57;;;;;;;48.20;23.10;;;2.70;86.10;;;;;;5031765;28;20049;-89
2022/01/12 08:55:25;;;;;;;44.80;22.08;;;2.70;86.10;;;;;;5032450;28;20572;-88
2022/01/12 08:57:52;;;;;;;43.42;22.08;;;2.70;86.10;;;;;;5031240;28;20388;-88
2022/01/12 09:00:20;;;;;;;42.03;22.35;;;2.80;86.20;;;;;;5035088;28;20045;-88
2022/01/12 09:02:47;;;;;;;44.00;22.63;;;2.80;86.20;;;;;;5032076;28;20052;-89
2022/01/12 09:05:15;;;;;;;41.15;20.98;;;2.80;86.20;;;;;;5031753;28;20046;-89
2022/01/12 09:07:42;;;;;;;44.17;22.15;;;2.80;86.10;;;;;;5032955;28;20051;-89
2022/01/12 09:10:11;;;;;;;43.42;22.30;;;2.80;86.20;;;;;;5033554;28;20513;-88
2022/01/12 09:12:39;;;;;;;45.28;22.23;;;2.90;86.10;;;;;;5032073;28;20059;-89
2022/01/12 09:15:08;;;;;;;42.97;21.73;;;2.90;86.20;;;;;;5032906;28;20047;-88
2022/01/12 09:17:36;;;;;;;38.53;20.75;;;2.90;86.10;;;;;;5033237;28;20136;-88
2022/01/12 09:20:05;;;;;;;42.78;22.08;;;2.90;86.10;;;;;;5032769;28;20049;-88
2022/01/12 09:22:32;;;;;;;41.22;21.85;;;2.90;86.10;;;;;;5033842;28;20049;-88
2022/01/12 09:24:59;;;;;;;44.35;21.90;;;2.90;86.10;;;;;;5032681;28;20045;-87
2022/01/12 09:27:26;;;;;;;40.03;21.20;;;3.00;86.10;;;;;;5033825;28;20050;-87
2022/01/12 09:29:53;;;;;;;38.17;20.23;;;3.00;86.10;;;;;;5033226;28;20041;-88
2022/01/12 09:32:20;;;;;;;46.60;22.35;;;3.00;86.10;;;;;;5033076;28;20497;-87
2022/01/12 09:34:47;;;;;;;48.13;22.10;;;3.00;86.10;;;;;;5033371;28;20041;-87
2022/01/12 09:37:14;;;;;;;39.92;20.15;;;3.00;86.10;;;;;;5032933;28;20049;-87
2022/01/12 09:39:42;;;;;;;38.55;19.65;;;3.00;86.10;;;;;;5032420;28;20084;-88
2022/01/12 09:42:09;;;;;;;41.75;20.80;;;3.10;86.10;;;;;;5028442;28;20540;-88
2022/01/12 09:44:43;;;;;;;39.63;20.30;;;3.10;86.10;;;;;;5022608;28;20052;-88
2022/01/12 09:47:10;;;;;;;41.08;19.42;;;3.10;86.10;;;;;;5016968;28;20041;-87
2022/01/12 09:49:38;;;;;;;36.75;18.63;;;3.20;86.10;;;;;;5014441;28;20064;-87
2022/01/12 09:52:05;;;;;;;37.03;19.15;;;3.20;86.10;;;;;;5014278;28;20045;-87
2022/01/12 09:54:32;;;;;;;35.53;18.58;;;3.20;86.10;;;;;;5016458;28;20060;-87
2022/01/12 09:57:00;;;;;;;37.55;19.02;;;3.20;86.10;;;;;;5016494;28;20052;-88
2022/01/12 09:59:27;;;;;;;39.95;18.73;;;3.20;86.10;;;;;;5016558;28;20052;-89
2022/01/12 10:01:55;;;;;;;32.92;17.92;;;3.30;86.00;;;;;;5014785;28;20038;-88
2022/01/12 10:04:24;;;;;;;37.58;18.27;;;3.30;86.00;;;;;;5012421;28;20127;-87
2022/01/12 10:07:00;;;;;;;35.95;17.95;;;3.30;86.10;;;;;;5027726;28;20046;-87
2022/01/12 10:09:34;;;;;;;34.55;18.17;;;3.40;86.00;;;;;;5016732;28;20054;-87
2022/01/12 10:12:06;;;;;;;39.05;18.77;;;3.40;86.00;;;;;;5016494;28;20046;-86
2022/01/12 10:14:58;;;;;;;35.90;17.45;;;3.40;86.00;;;;;;5016622;28;20056;-87
2022/01/12 10:17:38;;;;;;;33.92;17.25;;;3.40;86.00;;;;;;5016482;28;20046;-88
2022/01/12 10:20:14;;;;;;;33.92;17.02;;;3.40;86.00;;;;;;5017500;28;20056;-88
2022/01/12 10:22:56;;;;;;;32.22;17.25;;;3.50;86.00;;;;;;5027845;28;20066;-88
2022/01/12 10:25:25;;;;;;;36.28;17.65;;;3.50;86.00;;;;;;5013703;28;20132;-88
2022/01/12 10:27:52;;;;;;;31.92;17.02;;;3.50;86.00;;;;;;5032255;28;20050;-87
2022/01/12 10:30:28;;;;;;;37.35;17.00;;;3.50;86.00;;;;;;5011822;28;20050;-87
2022/01/12 10:33:25;;;;;;;38.30;18.15;;;3.60;85.90;;;;;;5010968;28;20045;-86
2022/01/12 10:36:00;;;;;;;35.25;17.17;;;3.60;85.90;;;;;;5020261;28;20529;-88
2022/01/12 10:38:28;;;;;;;35.70;17.15;;;3.60;85.90;;;;;;5023008;28;20108;-87
2022/01/12 10:41:04;;;;;;;34.55;17.55;;;3.70;85.90;;;;;;5012313;28;20053;-86
2022/01/12 10:43:43;;;;;;;33.58;17.20;;;3.70;85.90;;;;;;5013284;28;20456;-87
2022/01/12 10:46:15;;;;;;;35.42;17.08;;;3.70;85.90;;;;;;5031940;28;20132;-87
2022/01/12 10:48:50;;;;;;;39.15;17.00;;;3.80;85.90;;;;;;5030319;28;20049;-87
2022/01/12 10:51:20;;;;;;;35.42;17.48;;;3.80;85.90;;;;;;5019927;28;20058;-88
2022/01/12 10:53:50;;;;;;;36.70;17.25;;;3.90;85.90;;;;;;5019834;28;20045;-88
2022/01/12 10:56:23;;;;;;;36.60;16.45;;;3.90;85.90;;;;;;5023956;28;20046;-87
2022/01/12 10:58:55;;;;;;;36.92;17.33;;;3.90;85.90;;;;;;5028928;28;20052;-88
2022/01/12 11:01:27;;;;;;;37.05;17.33;;;4.00;85.90;;;;;;5018073;28;20048;-87
2022/01/12 11:03:55;;;;;;;37.22;18.27;;;4.00;85.90;;;;;;5030634;28;20057;-87
2022/01/12 11:06:25;;;;;;;39.30;18.13;;;4.00;85.90;;;;;;5020315;28;20042;-87
2022/01/12 11:08:53;;;;;;;37.17;17.95;;;4.10;85.90;;;;;;5019333;28;20053;-87
2022/01/12 11:11:20;;;;;;;40.08;17.38;;;4.10;85.90;;;;;;5021049;28;20042;-87
2022/01/12 11:13:50;;;;;;;39.85;18.65;;;4.10;85.80;;;;;;5017555;28;20045;-87
2022/01/12 11:16:25;;;;;;;36.38;16.90;;;4.20;85.90;;;;;;5031616;28;20413;-87
2022/01/12 11:18:54;;;;;;;39.13;18.75;;;4.30;85.90;;;;;;5026202;28;20075;-87
2022/01/12 11:21:24;;;;;;;37.63;18.20;;;4.30;85.80;;;;;;5029742;28;20139;-86
2022/01/12 11:23:55;;;;;;;39.97;19.02;;;4.40;85.80;;;;;;5032107;28;20049;-86
2022/01/12 11:26:29;;;;;;;44.53;19.00;;;4.40;85.80;;;;;;5032084;28;20048;-87
2022/01/12 11:28:56;;;;;;;40.17;18.50;;;4.40;85.80;;;;;;5030486;28;20046;-87
2022/01/12 11:31:28;;;;;;;43.05;20.15;;;4.50;85.70;;;;;;5015816;28;20050;-87
2022/01/12 11:33:56;;;;;;;41.22;19.38;;;4.50;85.70;;;;;;5017675;28;20064;-87
2022/01/12 11:36:28;;;;;;;39.55;19.48;;;4.60;85.70;;;;;;5019692;28;20129;-87
2022/01/12 11:39:15;;;;;;;41.08;19.05;;;4.60;85.70;;;;;;5019007;28;20530;-87
2022/01/12 11:41:43;;;;;;;41.60;19.40;;;4.60;85.60;;;;;;5022390;28;20041;-87
2022/01/12 11:44:15;;;;;;;41.28;19.08;;;4.70;85.60;;;;;;5028050;28;20041;-87
2022/01/12 11:46:53;;;;;;;38.97;19.23;;;4.70;85.60;;;;;;5016791;28;20050;-88
2022/01/12 11:49:42;;;;;;;41.72;19.05;;;4.80;85.60;;;;;;5014510;28;20515;-87
2022/01/12 11:52:16;;;;;;;41.35;19.15;;;4.90;85.50;;;;;;5030378;28;20045;-87
2022/01/12 11:54:47;;;;;;;42.45;19.15;;;4.90;85.50;;;;;;5018781;28;20092;-87
2022/01/12 11:57:19;;;;;;;40.10;19.63;;;4.90;85.40;;;;;;5017444;28;20049;-88
2022/01/12 12:00:01;;;;;;;45.60;20.98;;;4.90;85.40;;;;;;5018461;28;20053;-89
2022/01/12 12:02:38;;;;;;;40.40;18.45;;;4.90;85.30;;;;;;5020794;28;20045;-88
2022/01/12 12:05:15;;;;;;;47.22;20.38;;;5.00;85.30;;;;;;5028344;28;20080;-87
2022/01/12 12:08:04;;;;;;;43.85;19.75;;;5.00;85.20;;;;;;5014493;28;20050;-88
2022/01/12 12:10:36;;;;;;;39.33;19.05;;;5.00;85.20;;;;;;5013727;28;20069;-87
2022/01/12 12:13:05;;;;;;;39.25;19.17;;;5.10;85.20;;;;;;5016044;28;20050;-89
2022/01/12 12:15:34;;;;;;;39.92;19.42;;;5.10;85.10;;;;;;5016033;28;20045;-89
2022/01/12 12:18:04;;;;;;;44.25;20.88;;;5.20;85.10;;;;;;5017842;28;20057;-88
2022/01/12 12:20:33;;;;;;;42.22;20.25;;;5.20;85.10;;;;;;5018217;28;20042;-86
2022/01/12 12:23:00;;;;;;;41.47;19.67;;;5.20;85.00;;;;;;5018081;28;20042;-86
2022/01/12 12:25:31;;;;;;;44.55;21.00;;;5.20;85.00;;;;;;5014372;28;20052;-87
2022/01/12 12:28:04;;;;;;;43.53;20.00;;;5.20;84.90;;;;;;5016461;28;20046;-86
2022/01/12 12:30:34;;;;;;;42.67;20.88;;;5.30;84.90;;;;;;5028428;28;20053;-87
2022/01/12 12:33:13;;;;;;;43.60;20.55;;;5.30;84.90;;;;;;5020086;28;20042;-86
2022/01/12 12:35:43;;;;;;;46.55;20.10;;;5.30;84.80;;;;;;5017723;28;20513;-88
2022/01/12 12:38:13;;;;;;;44.22;20.33;;;5.40;84.80;;;;;;5017738;28;20049;-87
2022/01/12 12:40:46;;;;;;;45.45;20.48;;;5.40;84.80;;;;;;5016116;28;20044;-87
2022/01/12 12:43:27;;;;;;;44.42;20.77;;;5.40;84.80;;;;;;5014486;28;20060;-87
2022/01/12 12:46:02;;;;;;;51.08;21.98;;;5.40;84.80;;;;;;5028555;28;20504;-87
2022/01/12 12:48:32;;;;;;;44.15;20.48;;;5.40;84.70;;;;;;5027844;28;20566;-87
2022/01/12 12:51:04;;;;;;;46.75;20.20;;;5.40;84.70;;;;;;5020230;28;20410;-86
2022/01/12 12:53:37;;;;;;;44.22;20.88;;;5.40;84.70;;;;;;5017736;28;20045;-87
2022/01/12 12:56:07;;;;;;;44.05;20.95;;;5.40;84.60;;;;;;5017530;28;20041;-86
2022/01/12 12:58:36;;;;;;;42.17;20.00;;;5.50;84.60;;;;;;5014731;28;20056;-87
2022/01/12 13:01:08;;;;;;;48.83;21.88;;;5.40;84.60;;;;;;5013644;28;20125;-87
2022/01/12 13:03:37;;;;;;;43.58;21.42;;;5.40;84.50;;;;;;5017472;28;20453;-86
2022/01/12 13:06:04;;;;;;;41.28;20.20;;;5.50;84.50;;;;;;5015205;28;20557;-86
2022/01/12 13:08:32;;;;;;;42.33;20.20;;;5.50;84.50;;;;;;5016696;28;20046;-86
2022/01/12 13:11:10;;;;;;;43.88;20.05;;;5.40;84.50;;;;;;5014868;28;20045;-85
2022/01/12 13:13:37;;;;;;;38.60;19.02;;;5.40;84.50;;;;;;5028394;28;20045;-87
2022/01/12 13:16:07;;;;;;;41.47;19.27;;;5.50;84.40;;;;;;5014728;28;20137;-86
2022/01/12 13:18:39;;;;;;;43.22;20.27;;;5.40;84.40;;;;;;5012889;28;20534;-87
2022/01/12 13:21:07;;;;;;;41.05;19.90;;;5.40;84.40;;;;;;5017167;28;20132;-87
2022/01/12 13:23:45;;;;;;;41.22;19.48;;;5.40;84.40;;;;;;5019094;28;20045;-86
2022/01/12 13:26:16;;;;;;;41.40;19.05;;;5.40;84.40;;;;;;5028774;28;20057;-86
2022/01/12 13:28:46;;;;;;;42.10;20.15;;;5.40;84.40;;;;;;5027784;28;20409;-88
2022/01/12 13:31:15;;;;;;;38.45;18.35;;;5.40;84.40;;;;;;5028904;28;20053;-88
2022/01/12 13:33:45;;;;;;;41.85;19.73;;;5.40;84.40;;;;;;5016945;28;20422;-87
2022/01/12 13:36:16;;;;;;;37.30;19.00;;;5.40;84.40;;;;;;5016880;28;20491;-86
2022/01/12 13:38:47;;;;;;;42.00;20.25;;;5.40;84.30;;;;;;5016841;28;20487;-87
2022/01/12 13:41:19;;;;;;;40.95;19.65;;;5.40;84.30;;;;;;5017676;28;20046;-86
2022/01/12 13:43:51;;;;;;;37.42;19.60;;;5.40;84.40;;;;;;5014845;28;20042;-87
2022/01/12 13:46:19;;;;;;;40.95;20.50;;;5.50;84.30;;;;;;5028579;28;20042;-89
2022/01/12 13:49:40;;;;;;;40.47;19.83;;;5.50;84.30;;;;;;5028708;28;20110;-88
2022/01/12 13:51:51;;;;;;;38.70;19.52;;;5.50;84.30;;;;;;5011865;28;20064;-87